sensor_id;sensor_type;location;lat;lon;timestamp;pressure;altitude;pressure_sealevel;temperature;humidity
11345;BME280;5727;42.600;23.028;2023-07-31T00:01:05;93392.63;;;20.78;100.00
11345;BME280;5727;42.600;23.028;2023-07-31T00:03:32;93401.00;;;20.80;100.00
11345;BME280;5727;42.600;23.028;2023-07-31T00:05:59;93391.44;;;20.83;100.00
11345;BME280;5727;42.600;23.028;2023-07-31T00:08:25;93388.72;;;20.90;100.00
11345;BME280;5727;42.600;23.028;2023-07-31T00:10:52;93380.69;;;20.93;100.00
11345;BME280;5727;42.600;23.028;2023-07-31T00:13:19;93375.31;;;20.97;100.00
11345;BME280;5727;42.600;23.028;2023-07-31T00:15:46;93366.25;;;20.91;100.00
11345;BME280;5727;42.600;23.028;2023-07-31T00:18:15;93365.97;;;20.82;100.00
11345;BME280;5727;42.600;23.028;2023-07-31T00:20:42;93356.47;;;20.81;100.00
11345;BME280;5727;42.600;23.028;2023-07-31T00:23:08;93353.53;;;20.72;100.00
11345;BME280;5727;42.600;23.028;2023-07-31T00:25:35;93353.28;;;20.59;100.00
11345;BME280;5727;42.600;23.028;2023-07-31T00:28:02;93346.09;;;20.56;100.00
11345;BME280;5727;42.600;23.028;2023-07-31T00:30:28;93347.25;;;20.55;100.00
11345;BME280;5727;42.600;23.028;2023-07-31T00:32:55;93347.63;;;20.54;100.00
11345;BME280;5727;42.600;23.028;2023-07-31T00:35:23;93364.47;;;20.44;100.00
11345;BME280;5727;42.600;23.028;2023-07-31T00:37:50;93360.72;;;20.38;100.00
11345;BME280;5727;42.600;23.028;2023-07-31T00:40:17;93360.66;;;20.45;100.00
11345;BME280;5727;42.600;23.028;2023-07-31T00:42:43;93356.81;;;20.49;100.00
11345;BME280;5727;42.600;23.028;2023-07-31T00:45:10;93349.91;;;20.55;100.00
11345;BME280;5727;42.600;23.028;2023-07-31T00:47:37;93346.47;;;20.55;100.00
11345;BME280;5727;42.600;23.028;2023-07-31T00:50:05;93349.91;;;20.55;100.00
11345;BME280;5727;42.600;23.028;2023-07-31T00:52:34;93344.59;;;20.55;100.00
11345;BME280;5727;42.600;23.028;2023-07-31T00:55:01;93343.41;;;20.56;100.00
11345;BME280;5727;42.600;23.028;2023-07-31T00:57:28;93343.78;;;20.58;100.00
11345;BME280;5727;42.600;23.028;2023-07-31T00:59:55;93347.22;;;20.59;100.00
11345;BME280;5727;42.600;23.028;2023-07-31T01:02:22;93344.09;;;20.64;100.00
11345;BME280;5727;42.600;23.028;2023-07-31T01:04:49;93341.34;;;20.71;100.00
11345;BME280;5727;42.600;23.028;2023-07-31T01:07:22;93344.41;;;20.69;100.00
11345;BME280;5727;42.600;23.028;2023-07-31T01:10:01;93349.78;;;20.66;100.00
11345;BME280;5727;42.600;23.028;2023-07-31T01:12:31;93352.00;;;20.71;100.00
11345;BME280;5727;42.600;23.028;2023-07-31T01:15:05;93353.84;;;20.77;100.00
11345;BME280;5727;42.600;23.028;2023-07-31T01:17:32;93357.63;;;20.80;100.00
11345;BME280;5727;42.600;23.028;2023-07-31T01:20:02;93353.06;;;20.80;100.00
11345;BME280;5727;42.600;23.028;2023-07-31T01:25:47;93354.19;;;20.79;100.00
11345;BME280;5727;42.600;23.028;2023-07-31T01:28:20;93347.34;;;20.82;100.00
11345;BME280;5727;42.600;23.028;2023-07-31T01:30:48;93340.06;;;20.86;100.00
11345;BME280;5727;42.600;23.028;2023-07-31T01:33:15;93351.84;;;20.85;100.00
11345;BME280;5727;42.600;23.028;2023-07-31T01:35:44;93345.75;;;20.88;100.00
11345;BME280;5727;42.600;23.028;2023-07-31T01:38:11;93350.00;;;20.82;100.00
11345;BME280;5727;42.600;23.028;2023-07-31T01:40:41;93355.75;;;20.77;100.00
11345;BME280;5727;42.600;23.028;2023-07-31T01:43:09;93358.84;;;20.72;100.00
11345;BME280;5727;42.600;23.028;2023-07-31T01:45:36;93350.59;;;20.63;100.00
11345;BME280;5727;42.600;23.028;2023-07-31T01:48:03;93352.94;;;20.57;100.00
11345;BME280;5727;42.600;23.028;2023-07-31T01:50:30;93354.75;;;20.64;100.00
11345;BME280;5727;42.600;23.028;2023-07-31T01:52:56;93360.47;;;20.62;100.00
11345;BME280;5727;42.600;23.028;2023-07-31T01:55:23;93361.28;;;20.59;100.00
11345;BME280;5727;42.600;23.028;2023-07-31T01:57:50;93360.28;;;20.43;100.00
11345;BME280;5727;42.600;23.028;2023-07-31T02:00:19;93358.03;;;20.41;100.00
11345;BME280;5727;42.600;23.028;2023-07-31T02:02:46;93357.31;;;20.37;100.00
11345;BME280;5727;42.600;23.028;2023-07-31T02:05:12;93357.69;;;20.36;100.00
11345;BME280;5727;42.600;23.028;2023-07-31T02:07:39;93351.28;;;20.30;100.00
11345;BME280;5727;42.600;23.028;2023-07-31T02:10:06;93357.75;;;20.32;100.00
11345;BME280;5727;42.600;23.028;2023-07-31T02:12:33;93356.66;;;20.26;100.00
11345;BME280;5727;42.600;23.028;2023-07-31T02:15:00;93354.69;;;20.34;100.00
11345;BME280;5727;42.600;23.028;2023-07-31T02:17:28;93350.78;;;20.45;100.00
11345;BME280;5727;42.600;23.028;2023-07-31T02:19:55;93355.72;;;20.43;100.00
11345;BME280;5727;42.600;23.028;2023-07-31T02:22:22;93353.47;;;20.42;100.00
11345;BME280;5727;42.600;23.028;2023-07-31T02:24:48;93340.91;;;20.42;100.00
11345;BME280;5727;42.600;23.028;2023-07-31T02:27:15;93349.16;;;20.55;100.00
11345;BME280;5727;42.600;23.028;2023-07-31T02:29:42;93347.56;;;20.61;100.00
11345;BME280;5727;42.600;23.028;2023-07-31T02:32:08;93349.00;;;20.69;100.00
11345;BME280;5727;42.600;23.028;2023-07-31T02:34:36;93352.34;;;20.76;100.00
11345;BME280;5727;42.600;23.028;2023-07-31T02:37:04;93359.47;;;20.83;100.00
11345;BME280;5727;42.600;23.028;2023-07-31T02:39:30;93358.72;;;20.86;100.00
11345;BME280;5727;42.600;23.028;2023-07-31T02:41:57;93365.25;;;20.78;100.00
11345;BME280;5727;42.600;23.028;2023-07-31T02:44:24;93368.41;;;20.66;100.00
11345;BME280;5727;42.600;23.028;2023-07-31T02:46:50;93372.59;;;20.67;100.00
11345;BME280;5727;42.600;23.028;2023-07-31T02:49:17;93370.00;;;20.60;100.00
11345;BME280;5727;42.600;23.028;2023-07-31T02:51:45;93366.59;;;20.59;100.00
11345;BME280;5727;42.600;23.028;2023-07-31T02:54:12;93364.63;;;20.63;100.00
11345;BME280;5727;42.600;23.028;2023-07-31T02:56:39;93364.22;;;20.68;100.00
11345;BME280;5727;42.600;23.028;2023-07-31T02:59:05;93363.09;;;20.66;100.00
11345;BME280;5727;42.600;23.028;2023-07-31T03:01:32;93363.47;;;20.68;100.00
11345;BME280;5727;42.600;23.028;2023-07-31T03:03:59;93359.66;;;20.69;100.00
11345;BME280;5727;42.600;23.028;2023-07-31T03:06:26;93361.19;;;20.66;100.00
11345;BME280;5727;42.600;23.028;2023-07-31T03:08:54;93363.50;;;20.64;100.00
11345;BME280;5727;42.600;23.028;2023-07-31T03:11:21;93372.97;;;20.65;100.00
11345;BME280;5727;42.600;23.028;2023-07-31T03:13:48;93376.25;;;20.43;100.00
11345;BME280;5727;42.600;23.028;2023-07-31T03:16:14;93374.84;;;20.31;100.00
11345;BME280;5727;42.600;23.028;2023-07-31T03:18:41;93374.81;;;20.35;100.00
11345;BME280;5727;42.600;23.028;2023-07-31T03:21:08;93377.00;;;20.43;100.00
11345;BME280;5727;42.600;23.028;2023-07-31T03:23:35;93375.81;;;20.51;100.00
11345;BME280;5727;42.600;23.028;2023-07-31T03:26:07;93382.94;;;20.58;100.00
11345;BME280;5727;42.600;23.028;2023-07-31T03:28:34;93377.97;;;20.60;100.00
11345;BME280;5727;42.600;23.028;2023-07-31T03:31:01;93377.97;;;20.60;100.00
11345;BME280;5727;42.600;23.028;2023-07-31T03:33:27;93383.38;;;20.53;100.00
11345;BME280;5727;42.600;23.028;2023-07-31T03:35:54;93390.22;;;20.54;100.00
11345;BME280;5727;42.600;23.028;2023-07-31T03:38:21;93387.91;;;20.56;100.00
11345;BME280;5727;42.600;23.028;2023-07-31T03:40:47;93400.84;;;20.57;100.00
11345;BME280;5727;42.600;23.028;2023-07-31T03:43:16;93400.06;;;20.57;100.00
11345;BME280;5727;42.600;23.028;2023-07-31T03:45:43;93400.13;;;20.53;100.00
11345;BME280;5727;42.600;23.028;2023-07-31T03:48:09;93401.97;;;20.56;100.00
11345;BME280;5727;42.600;23.028;2023-07-31T03:50:36;93402.69;;;20.60;100.00
11345;BME280;5727;42.600;23.028;2023-07-31T03:53:03;93403.03;;;20.66;100.00
11345;BME280;5727;42.600;23.028;2023-07-31T03:55:29;93399.91;;;20.74;100.00
11345;BME280;5727;42.600;23.028;2023-07-31T03:57:56;93405.97;;;20.75;100.00
11345;BME280;5727;42.600;23.028;2023-07-31T04:00:26;93407.44;;;20.79;100.00
11345;BME280;5727;42.600;23.028;2023-07-31T04:02:53;93402.22;;;20.72;100.00
11345;BME280;5727;42.600;23.028;2023-07-31T04:05:20;93399.03;;;20.84;100.00
11345;BME280;5727;42.600;23.028;2023-07-31T04:07:47;93403.53;;;20.91;100.00
11345;BME280;5727;42.600;23.028;2023-07-31T04:10:13;93411.06;;;20.96;100.00
11345;BME280;5727;42.600;23.028;2023-07-31T04:12:40;93422.63;;;20.82;100.00
11345;BME280;5727;42.600;23.028;2023-07-31T04:15:08;93421.69;;;20.62;100.00
11345;BME280;5727;42.600;23.028;2023-07-31T04:17:36;93430.47;;;20.59;100.00
11345;BME280;5727;42.600;23.028;2023-07-31T04:20:03;93424.72;;;20.64;100.00
11345;BME280;5727;42.600;23.028;2023-07-31T04:22:30;93426.22;;;20.65;100.00
11345;BME280;5727;42.600;23.028;2023-07-31T04:24:57;93432.66;;;20.68;100.00
11345;BME280;5727;42.600;23.028;2023-07-31T04:27:24;93438.63;;;20.79;100.00
11345;BME280;5727;42.600;23.028;2023-07-31T04:29:51;93429.44;;;20.87;100.00
11345;BME280;5727;42.600;23.028;2023-07-31T04:32:17;93424.38;;;21.00;100.00
11345;BME280;5727;42.600;23.028;2023-07-31T04:34:46;93437.94;;;21.12;100.00
11345;BME280;5727;42.600;23.028;2023-07-31T04:37:13;93433.84;;;21.04;100.00
11345;BME280;5727;42.600;23.028;2023-07-31T04:39:40;93436.28;;;20.88;100.00
11345;BME280;5727;42.600;23.028;2023-07-31T04:42:07;93436.56;;;21.01;100.00
11345;BME280;5727;42.600;23.028;2023-07-31T04:44:33;93430.00;;;21.09;100.00
11345;BME280;5727;42.600;23.028;2023-07-31T04:47:00;93424.53;;;21.19;100.00
11345;BME280;5727;42.600;23.028;2023-07-31T04:49:27;93419.41;;;21.35;100.00
11345;BME280;5727;42.600;23.028;2023-07-31T04:51:55;93423.16;;;21.41;100.00
11345;BME280;5727;42.600;23.028;2023-07-31T04:54:22;93429.91;;;21.46;100.00
11345;BME280;5727;42.600;23.028;2023-07-31T04:56:49;93431.84;;;21.45;100.00
11345;BME280;5727;42.600;23.028;2023-07-31T04:59:15;93430.56;;;21.57;100.00
11345;BME280;5727;42.600;23.028;2023-07-31T05:01:42;93435.97;;;21.50;100.00
11345;BME280;5727;42.600;23.028;2023-07-31T05:04:12;93441.09;;;21.37;100.00
11345;BME280;5727;42.600;23.028;2023-07-31T05:06:39;93433.59;;;21.25;100.00
11345;BME280;5727;42.600;23.028;2023-07-31T05:09:07;93427.03;;;21.33;100.00
11345;BME280;5727;42.600;23.028;2023-07-31T05:11:34;93432.63;;;21.12;100.00
11345;BME280;5727;42.600;23.028;2023-07-31T05:14:01;93432.25;;;21.10;100.00
11345;BME280;5727;42.600;23.028;2023-07-31T05:16:28;93435.59;;;21.18;100.00
11345;BME280;5727;42.600;23.028;2023-07-31T05:18:55;93444.47;;;21.08;100.00
11345;BME280;5727;42.600;23.028;2023-07-31T05:21:21;93440.56;;;21.16;100.00
11345;BME280;5727;42.600;23.028;2023-07-31T05:23:49;93434.06;;;21.20;100.00
11345;BME280;5727;42.600;23.028;2023-07-31T05:26:17;93437.47;;;21.21;100.00
11345;BME280;5727;42.600;23.028;2023-07-31T05:28:44;93434.31;;;21.29;100.00
11345;BME280;5727;42.600;23.028;2023-07-31T05:31:10;93432.22;;;21.14;100.00
11345;BME280;5727;42.600;23.028;2023-07-31T05:33:37;93437.94;;;21.12;100.00
11345;BME280;5727;42.600;23.028;2023-07-31T05:36:04;93432.09;;;21.24;100.00
11345;BME280;5727;42.600;23.028;2023-07-31T05:38:31;93428.91;;;21.36;100.00
11345;BME280;5727;42.600;23.028;2023-07-31T05:40:58;93427.25;;;21.49;100.00
11345;BME280;5727;42.600;23.028;2023-07-31T05:43:26;93431.66;;;21.59;100.00
11345;BME280;5727;42.600;23.028;2023-07-31T05:45:52;93433.94;;;21.61;100.00
11345;BME280;5727;42.600;23.028;2023-07-31T05:48:19;93434.84;;;21.77;100.00
11345;BME280;5727;42.600;23.028;2023-07-31T05:50:46;93438.50;;;21.60;100.00
11345;BME280;5727;42.600;23.028;2023-07-31T05:53:13;93441.06;;;21.67;100.00
11345;BME280;5727;42.600;23.028;2023-07-31T05:55:40;93448.47;;;21.87;100.00
11345;BME280;5727;42.600;23.028;2023-07-31T05:58:06;93452.75;;;21.80;100.00
11345;BME280;5727;42.600;23.028;2023-07-31T06:00:34;93464.13;;;21.84;100.00
11345;BME280;5727;42.600;23.028;2023-07-31T06:03:01;93468.03;;;21.76;100.00
11345;BME280;5727;42.600;23.028;2023-07-31T06:05:28;93454.91;;;21.89;100.00
11345;BME280;5727;42.600;23.028;2023-07-31T06:07:55;93456.53;;;22.10;100.00
11345;BME280;5727;42.600;23.028;2023-07-31T06:10:22;93455.75;;;22.36;100.00
11345;BME280;5727;42.600;23.028;2023-07-31T06:12:49;93452.31;;;22.62;100.00
11345;BME280;5727;42.600;23.028;2023-07-31T06:15:15;93463.91;;;22.75;100.00
11345;BME280;5727;42.600;23.028;2023-07-31T06:17:44;93455.47;;;22.53;100.00
11345;BME280;5727;42.600;23.028;2023-07-31T06:20:11;93459.72;;;22.51;100.00
11345;BME280;5727;42.600;23.028;2023-07-31T06:22:38;93458.81;;;22.34;100.00
11345;BME280;5727;42.600;23.028;2023-07-31T06:25:05;93459.75;;;21.98;100.00
11345;BME280;5727;42.600;23.028;2023-07-31T06:27:32;93461.13;;;21.79;100.00
11345;BME280;5727;42.600;23.028;2023-07-31T06:29:59;93460.03;;;21.76;100.00
11345;BME280;5727;42.600;23.028;2023-07-31T06:32:25;93460.34;;;21.78;100.00
11345;BME280;5727;42.600;23.028;2023-07-31T06:34:54;93462.00;;;21.69;100.00
11345;BME280;5727;42.600;23.028;2023-07-31T06:37:20;93462.50;;;21.60;100.00
11345;BME280;5727;42.600;23.028;2023-07-31T06:39:47;93462.91;;;21.59;100.00
11345;BME280;5727;42.600;23.028;2023-07-31T06:42:14;93463.16;;;21.68;100.00
11345;BME280;5727;42.600;23.028;2023-07-31T06:44:41;93456.66;;;21.69;100.00
11345;BME280;5727;42.600;23.028;2023-07-31T06:47:07;93451.94;;;21.83;100.00
11345;BME280;5727;42.600;23.028;2023-07-31T06:49:34;93456.59;;;21.76;100.00
11345;BME280;5727;42.600;23.028;2023-07-31T06:52:03;93459.63;;;21.78;100.00
11345;BME280;5727;42.600;23.028;2023-07-31T06:54:29;93458.44;;;21.79;100.00
11345;BME280;5727;42.600;23.028;2023-07-31T06:56:56;93452.31;;;21.86;100.00
11345;BME280;5727;42.600;23.028;2023-07-31T06:59:23;93446.81;;;21.96;100.00
11345;BME280;5727;42.600;23.028;2023-07-31T07:01:50;93449.09;;;21.98;100.00
11345;BME280;5727;42.600;23.028;2023-07-31T07:04:16;93455.63;;;21.93;100.00
11345;BME280;5727;42.600;23.028;2023-07-31T07:06:43;93444.06;;;22.03;100.00
11345;BME280;5727;42.600;23.028;2023-07-31T07:09:11;93449.22;;;22.14;100.00
11345;BME280;5727;42.600;23.028;2023-07-31T07:11:38;93450.56;;;22.25;100.00
11345;BME280;5727;42.600;23.028;2023-07-31T07:14:05;93452.91;;;22.23;100.00
11345;BME280;5727;42.600;23.028;2023-07-31T07:16:31;93457.22;;;22.14;100.00
11345;BME280;5727;42.600;23.028;2023-07-31T07:18:58;93460.72;;;22.11;100.00
11345;BME280;5727;42.600;23.028;2023-07-31T07:21:25;93457.41;;;22.00;100.00
11345;BME280;5727;42.600;23.028;2023-07-31T07:23:51;93463.13;;;22.02;100.00
11345;BME280;5727;42.600;23.028;2023-07-31T07:26:19;93466.19;;;22.00;100.00
11345;BME280;5727;42.600;23.028;2023-07-31T07:28:46;93458.06;;;22.11;100.00
11345;BME280;5727;42.600;23.028;2023-07-31T07:31:13;93454.31;;;22.31;100.00
11345;BME280;5727;42.600;23.028;2023-07-31T07:33:40;93463.16;;;22.51;100.00
11345;BME280;5727;42.600;23.028;2023-07-31T07:36:06;93459.56;;;22.61;100.00
11345;BME280;5727;42.600;23.028;2023-07-31T07:38:35;93468.69;;;22.64;100.00
11345;BME280;5727;42.600;23.028;2023-07-31T07:41:02;93457.13;;;22.70;100.00
11345;BME280;5727;42.600;23.028;2023-07-31T07:43:30;93459.50;;;22.88;100.00
11345;BME280;5727;42.600;23.028;2023-07-31T07:45:56;93467.75;;;22.97;100.00
11345;BME280;5727;42.600;23.028;2023-07-31T07:48:23;93470.88;;;22.92;100.00
11345;BME280;5727;42.600;23.028;2023-07-31T07:50:50;93485.75;;;22.70;100.00
11345;BME280;5727;42.600;23.028;2023-07-31T07:53:17;93482.97;;;22.50;100.00
11345;BME280;5727;42.600;23.028;2023-07-31T07:55:43;93479.19;;;22.48;100.00
11345;BME280;5727;42.600;23.028;2023-07-31T07:58:10;93475.38;;;22.49;100.00
11345;BME280;5727;42.600;23.028;2023-07-31T08:00:39;93471.00;;;22.62;100.00
11345;BME280;5727;42.600;23.028;2023-07-31T08:03:06;93472.91;;;22.85;100.00
11345;BME280;5727;42.600;23.028;2023-07-31T08:05:33;93484.56;;;22.94;100.00
11345;BME280;5727;42.600;23.028;2023-07-31T08:08:00;93461.16;;;23.02;100.00
11345;BME280;5727;42.600;23.028;2023-07-31T08:10:27;93475.13;;;23.09;100.00
11345;BME280;5727;42.600;23.028;2023-07-31T08:12:53;93473.72;;;23.05;100.00
11345;BME280;5727;42.600;23.028;2023-07-31T08:15:20;93482.38;;;22.89;100.00
11345;BME280;5727;42.600;23.028;2023-07-31T08:17:48;93477.66;;;22.97;100.00
11345;BME280;5727;42.600;23.028;2023-07-31T08:20:15;93478.91;;;23.12;100.00
11345;BME280;5727;42.600;23.028;2023-07-31T08:22:42;93484.47;;;23.01;100.00
11345;BME280;5727;42.600;23.028;2023-07-31T08:25:08;93490.44;;;23.09;100.00
11345;BME280;5727;42.600;23.028;2023-07-31T08:27:35;93485.72;;;23.16;100.00
11345;BME280;5727;42.600;23.028;2023-07-31T08:30:02;93483.56;;;23.31;100.00
11345;BME280;5727;42.600;23.028;2023-07-31T08:32:29;93483.72;;;23.43;100.00
11345;BME280;5727;42.600;23.028;2023-07-31T08:34:58;93482.72;;;23.53;100.00
11345;BME280;5727;42.600;23.028;2023-07-31T08:37:24;93493.72;;;23.59;100.00
11345;BME280;5727;42.600;23.028;2023-07-31T08:39:51;93482.53;;;23.44;100.00
11345;BME280;5727;42.600;23.028;2023-07-31T08:42:18;93474.50;;;23.44;100.00
11345;BME280;5727;42.600;23.028;2023-07-31T08:44:46;93475.66;;;23.63;100.00
11345;BME280;5727;42.600;23.028;2023-07-31T08:47:13;93473.56;;;23.90;100.00
11345;BME280;5727;42.600;23.028;2023-07-31T08:49:42;93463.81;;;24.19;96.10
11345;BME280;5727;42.600;23.028;2023-07-31T08:52:11;93465.53;;;24.10;93.78
11345;BME280;5727;42.600;23.028;2023-07-31T08:54:37;93469.41;;;24.25;97.72
11345;BME280;5727;42.600;23.028;2023-07-31T08:57:05;93466.94;;;24.34;97.00
11345;BME280;5727;42.600;23.028;2023-07-31T08:59:35;93453.19;;;24.48;93.82
11345;BME280;5727;42.600;23.028;2023-07-31T09:02:05;93468.16;;;24.29;94.37
11345;BME280;5727;42.600;23.028;2023-07-31T09:04:33;93463.31;;;24.40;90.36
11345;BME280;5727;42.600;23.028;2023-07-31T09:07:01;93473.78;;;24.51;90.84
11345;BME280;5727;42.600;23.028;2023-07-31T09:09:31;93467.75;;;24.47;92.47
11345;BME280;5727;42.600;23.028;2023-07-31T09:11:58;93456.03;;;24.57;93.50
11345;BME280;5727;42.600;23.028;2023-07-31T09:14:25;93463.72;;;24.23;93.55
11345;BME280;5727;42.600;23.028;2023-07-31T09:17:10;93450.19;;;24.30;96.23
11345;BME280;5727;42.600;23.028;2023-07-31T09:19:37;93456.81;;;24.41;94.70
11345;BME280;5727;42.600;23.028;2023-07-31T09:22:04;93456.88;;;24.70;89.39
11345;BME280;5727;42.600;23.028;2023-07-31T09:24:34;93458.88;;;24.82;85.96
11345;BME280;5727;42.600;23.028;2023-07-31T09:27:01;93456.72;;;24.93;83.80
11345;BME280;5727;42.600;23.028;2023-07-31T09:29:28;93456.19;;;24.82;82.70
11345;BME280;5727;42.600;23.028;2023-07-31T09:31:56;93440.19;;;24.95;84.07
11345;BME280;5727;42.600;23.028;2023-07-31T09:34:28;93452.47;;;25.08;82.00
11345;BME280;5727;42.600;23.028;2023-07-31T09:36:58;93451.03;;;24.75;82.79
11345;BME280;5727;42.600;23.028;2023-07-31T09:39:27;93447.91;;;24.77;82.12
11345;BME280;5727;42.600;23.028;2023-07-31T09:41:57;93440.13;;;24.66;83.42
11345;BME280;5727;42.600;23.028;2023-07-31T09:44:37;93443.97;;;24.65;80.32
11345;BME280;5727;42.600;23.028;2023-07-31T09:47:04;93455.19;;;24.92;84.79
11345;BME280;5727;42.600;23.028;2023-07-31T09:49:31;93438.28;;;24.63;88.32
11345;BME280;5727;42.600;23.028;2023-07-31T09:51:59;93432.97;;;24.92;88.13
11345;BME280;5727;42.600;23.028;2023-07-31T09:54:25;93442.75;;;24.86;88.16
11345;BME280;5727;42.600;23.028;2023-07-31T09:56:53;93434.75;;;24.82;87.50
11345;BME280;5727;42.600;23.028;2023-07-31T09:59:22;93448.16;;;24.82;86.96
11345;BME280;5727;42.600;23.028;2023-07-31T10:01:49;93437.94;;;24.93;89.54
11345;BME280;5727;42.600;23.028;2023-07-31T10:04:17;93446.38;;;24.92;85.10
11345;BME280;5727;42.600;23.028;2023-07-31T10:06:47;93437.78;;;24.68;79.85
11345;BME280;5727;42.600;23.028;2023-07-31T10:09:17;93431.50;;;24.91;79.22
11345;BME280;5727;42.600;23.028;2023-07-31T10:11:47;93435.03;;;25.16;80.58
11345;BME280;5727;42.600;23.028;2023-07-31T10:14:19;93421.22;;;25.47;79.49
11345;BME280;5727;42.600;23.028;2023-07-31T10:16:48;93437.34;;;25.72;78.81
11345;BME280;5727;42.600;23.028;2023-07-31T10:19:16;93428.22;;;25.57;77.29
11345;BME280;5727;42.600;23.028;2023-07-31T10:21:43;93430.19;;;25.40;71.13
11345;BME280;5727;42.600;23.028;2023-07-31T10:24:11;93416.50;;;25.63;73.40
11345;BME280;5727;42.600;23.028;2023-07-31T10:26:38;93412.22;;;25.78;71.93
11345;BME280;5727;42.600;23.028;2023-07-31T10:29:06;93418.25;;;25.82;69.82
11345;BME280;5727;42.600;23.028;2023-07-31T10:31:34;93411.28;;;25.85;69.55
11345;BME280;5727;42.600;23.028;2023-07-31T10:34:03;93411.59;;;25.87;70.79
11345;BME280;5727;42.600;23.028;2023-07-31T10:36:30;93406.66;;;25.98;71.36
11345;BME280;5727;42.600;23.028;2023-07-31T10:38:56;93414.44;;;26.08;72.06
11345;BME280;5727;42.600;23.028;2023-07-31T10:41:32;93398.41;;;25.80;73.32
11345;BME280;5727;42.600;23.028;2023-07-31T10:43:59;93403.63;;;25.71;74.29
11345;BME280;5727;42.600;23.028;2023-07-31T10:46:27;93408.50;;;25.76;71.05
11345;BME280;5727;42.600;23.028;2023-07-31T10:49:00;93407.19;;;25.68;68.64
11345;BME280;5727;42.600;23.028;2023-07-31T10:51:34;93397.44;;;25.74;67.69
11345;BME280;5727;42.600;23.028;2023-07-31T10:54:11;93401.75;;;26.09;68.73
11345;BME280;5727;42.600;23.028;2023-07-31T10:56:38;93395.34;;;26.53;69.25
11345;BME280;5727;42.600;23.028;2023-07-31T10:59:05;93394.13;;;26.67;65.39
11345;BME280;5727;42.600;23.028;2023-07-31T11:01:50;93393.09;;;26.52;62.92
11345;BME280;5727;42.600;23.028;2023-07-31T11:04:22;93387.84;;;26.48;63.04
11345;BME280;5727;42.600;23.028;2023-07-31T11:06:57;93386.25;;;26.51;65.11
11345;BME280;5727;42.600;23.028;2023-07-31T11:09:27;93380.91;;;26.13;69.01
11345;BME280;5727;42.600;23.028;2023-07-31T11:11:57;93388.84;;;26.29;70.56
11345;BME280;5727;42.600;23.028;2023-07-31T11:14:23;93384.56;;;26.32;68.77
11345;BME280;5727;42.600;23.028;2023-07-31T11:16:50;93377.94;;;26.58;68.25
11345;BME280;5727;42.600;23.028;2023-07-31T11:19:21;93384.38;;;26.60;67.38
11345;BME280;5727;42.600;23.028;2023-07-31T11:21:48;93399.03;;;26.34;72.82
11345;BME280;5727;42.600;23.028;2023-07-31T11:24:16;93398.50;;;25.89;77.42
11345;BME280;5727;42.600;23.028;2023-07-31T11:26:49;93398.09;;;25.78;78.79
11345;BME280;5727;42.600;23.028;2023-07-31T11:29:15;93409.97;;;25.77;79.80
11345;BME280;5727;42.600;23.028;2023-07-31T11:31:42;93402.03;;;25.61;81.58
11345;BME280;5727;42.600;23.028;2023-07-31T11:34:09;93417.19;;;25.38;81.48
11345;BME280;5727;42.600;23.028;2023-07-31T11:36:36;93400.13;;;25.32;81.81
11345;BME280;5727;42.600;23.028;2023-07-31T11:39:07;93397.72;;;25.51;79.63
11345;BME280;5727;42.600;23.028;2023-07-31T11:41:35;93394.84;;;25.70;77.81
11345;BME280;5727;42.600;23.028;2023-07-31T11:44:02;93400.31;;;25.92;77.82
11345;BME280;5727;42.600;23.028;2023-07-31T11:46:30;93396.50;;;26.18;73.68
11345;BME280;5727;42.600;23.028;2023-07-31T11:48:59;93384.97;;;26.89;71.33
11345;BME280;5727;42.600;23.028;2023-07-31T11:51:26;93378.50;;;27.43;69.76
11345;BME280;5727;42.600;23.028;2023-07-31T11:53:57;93376.53;;;27.95;67.23
11345;BME280;5727;42.600;23.028;2023-07-31T11:56:25;93376.66;;;27.92;66.87
11345;BME280;5727;42.600;23.028;2023-07-31T11:58:58;93376.53;;;27.22;67.53
11345;BME280;5727;42.600;23.028;2023-07-31T12:01:28;93371.75;;;28.48;61.64
11345;BME280;5727;42.600;23.028;2023-07-31T12:03:56;93393.38;;;29.66;55.82
11345;BME280;5727;42.600;23.028;2023-07-31T12:06:32;93362.31;;;30.92;51.89
11345;BME280;5727;42.600;23.028;2023-07-31T12:09:01;93358.94;;;30.26;52.15
11345;BME280;5727;42.600;23.028;2023-07-31T12:11:28;93353.34;;;31.97;48.08
11345;BME280;5727;42.600;23.028;2023-07-31T12:13:56;93364.13;;;29.55;52.39
11345;BME280;5727;42.600;23.028;2023-07-31T12:16:26;93351.06;;;30.05;51.94
11345;BME280;5727;42.600;23.028;2023-07-31T12:18:53;93350.47;;;30.42;50.08
11345;BME280;5727;42.600;23.028;2023-07-31T12:21:19;93357.13;;;30.32;49.77
11345;BME280;5727;42.600;23.028;2023-07-31T12:23:46;93354.75;;;29.15;54.11
11345;BME280;5727;42.600;23.028;2023-07-31T12:26:14;93342.00;;;29.24;54.72
11345;BME280;5727;42.600;23.028;2023-07-31T12:28:43;93343.81;;;29.87;51.51
11345;BME280;5727;42.600;23.028;2023-07-31T12:31:12;93342.13;;;30.22;51.71
11345;BME280;5727;42.600;23.028;2023-07-31T12:33:46;93343.81;;;31.87;46.92
11345;BME280;5727;42.600;23.028;2023-07-31T12:36:15;93346.19;;;32.29;45.21
11345;BME280;5727;42.600;23.028;2023-07-31T12:38:42;93354.34;;;32.14;41.49
11345;BME280;5727;42.600;23.028;2023-07-31T12:41:09;93334.13;;;31.51;43.74
11345;BME280;5727;42.600;23.028;2023-07-31T12:43:37;93333.53;;;32.40;41.93
11345;BME280;5727;42.600;23.028;2023-07-31T12:46:04;93334.88;;;33.31;38.88
11345;BME280;5727;42.600;23.028;2023-07-31T12:48:32;93335.22;;;33.70;36.63
11345;BME280;5727;42.600;23.028;2023-07-31T12:50:59;93325.41;;;32.40;39.51
11345;BME280;5727;42.600;23.028;2023-07-31T12:53:26;93350.66;;;33.07;37.20
11345;BME280;5727;42.600;23.028;2023-07-31T12:55:54;93315.50;;;32.03;40.84
11345;BME280;5727;42.600;23.028;2023-07-31T12:58:21;93325.19;;;30.93;42.84